sensor_id;sensor_type;location;lat;lon;timestamp;P1;durP1;ratioP1;P2;durP2;ratioP2
19985;SDS011;10154;52.474;10.768;2023-02-28T00:00:48;14.00;;;4.70;;
19985;SDS011;10154;52.474;10.768;2023-02-28T00:03:13;10.83;;;4.50;;
19985;SDS011;10154;52.474;10.768;2023-02-28T00:05:39;11.90;;;4.83;;
19985;SDS011;10154;52.474;10.768;2023-02-28T00:08:04;14.07;;;4.90;;
19985;SDS011;10154;52.474;10.768;2023-02-28T00:10:30;12.87;;;4.80;;
19985;SDS011;10154;52.474;10.768;2023-02-28T00:13:03;9.53;;;4.33;;
19985;SDS011;10154;52.474;10.768;2023-02-28T00:15:31;11.67;;;4.83;;
19985;SDS011;10154;52.474;10.768;2023-02-28T00:17:57;10.53;;;4.17;;
19985;SDS011;10154;52.474;10.768;2023-02-28T00:20:22;9.47;;;4.13;;
19985;SDS011;10154;52.474;10.768;2023-02-28T00:22:49;8.60;;;4.03;;
19985;SDS011;10154;52.474;10.768;2023-02-28T00:25:17;8.53;;;4.03;;
19985;SDS011;10154;52.474;10.768;2023-02-28T00:27:44;9.37;;;4.23;;
19985;SDS011;10154;52.474;10.768;2023-02-28T00:30:10;10.60;;;4.50;;
19985;SDS011;10154;52.474;10.768;2023-02-28T00:32:38;11.43;;;3.90;;
19985;SDS011;10154;52.474;10.768;2023-02-28T00:35:03;9.20;;;4.20;;
19985;SDS011;10154;52.474;10.768;2023-02-28T00:37:29;10.27;;;4.27;;
19985;SDS011;10154;52.474;10.768;2023-02-28T00:39:55;9.93;;;4.30;;
19985;SDS011;10154;52.474;10.768;2023-02-28T00:42:20;8.27;;;3.90;;
19985;SDS011;10154;52.474;10.768;2023-02-28T00:44:46;8.10;;;3.60;;
19985;SDS011;10154;52.474;10.768;2023-02-28T00:47:11;8.97;;;4.00;;
19985;SDS011;10154;52.474;10.768;2023-02-28T00:49:37;10.30;;;4.53;;
19985;SDS011;10154;52.474;10.768;2023-02-28T00:52:02;12.53;;;4.30;;
19985;SDS011;10154;52.474;10.768;2023-02-28T00:54:28;9.93;;;4.17;;
19985;SDS011;10154;52.474;10.768;2023-02-28T00:56:53;12.43;;;4.50;;
19985;SDS011;10154;52.474;10.768;2023-02-28T00:59:19;10.43;;;4.33;;
19985;SDS011;10154;52.474;10.768;2023-02-28T01:01:45;14.80;;;4.73;;
19985;SDS011;10154;52.474;10.768;2023-02-28T01:04:11;10.97;;;4.13;;
19985;SDS011;10154;52.474;10.768;2023-02-28T01:06:37;9.83;;;4.43;;
19985;SDS011;10154;52.474;10.768;2023-02-28T01:09:03;12.27;;;4.50;;
19985;SDS011;10154;52.474;10.768;2023-02-28T01:11:29;11.87;;;4.50;;
19985;SDS011;10154;52.474;10.768;2023-02-28T01:13:54;10.03;;;4.70;;
19985;SDS011;10154;52.474;10.768;2023-02-28T01:16:19;8.70;;;4.07;;
19985;SDS011;10154;52.474;10.768;2023-02-28T01:18:45;12.60;;;4.70;;
19985;SDS011;10154;52.474;10.768;2023-02-28T01:21:12;15.43;;;5.47;;
19985;SDS011;10154;52.474;10.768;2023-02-28T01:23:39;23.20;;;5.70;;
19985;SDS011;10154;52.474;10.768;2023-02-28T01:26:09;21.87;;;5.60;;
19985;SDS011;10154;52.474;10.768;2023-02-28T01:28:37;26.00;;;6.23;;
19985;SDS011;10154;52.474;10.768;2023-02-28T01:31:03;25.63;;;7.03;;
19985;SDS011;10154;52.474;10.768;2023-02-28T01:33:28;13.60;;;5.00;;
19985;SDS011;10154;52.474;10.768;2023-02-28T01:36:00;14.67;;;4.47;;
19985;SDS011;10154;52.474;10.768;2023-02-28T01:38:36;11.67;;;4.20;;
19985;SDS011;10154;52.474;10.768;2023-02-28T01:41:01;10.77;;;4.50;;
19985;SDS011;10154;52.474;10.768;2023-02-28T01:43:28;11.43;;;4.47;;
19985;SDS011;10154;52.474;10.768;2023-02-28T01:45:56;10.40;;;4.73;;
19985;SDS011;10154;52.474;10.768;2023-02-28T01:48:24;12.33;;;4.97;;
19985;SDS011;10154;52.474;10.768;2023-02-28T01:50:51;10.80;;;5.17;;
19985;SDS011;10154;52.474;10.768;2023-02-28T01:53:19;11.53;;;4.63;;
19985;SDS011;10154;52.474;10.768;2023-02-28T01:55:50;11.70;;;4.40;;
19985;SDS011;10154;52.474;10.768;2023-02-28T01:58:17;11.43;;;4.77;;
19985;SDS011;10154;52.474;10.768;2023-02-28T02:00:42;8.93;;;4.30;;
19985;SDS011;10154;52.474;10.768;2023-02-28T02:03:09;10.37;;;4.27;;
19985;SDS011;10154;52.474;10.768;2023-02-28T02:05:37;11.43;;;4.60;;
19985;SDS011;10154;52.474;10.768;2023-02-28T02:08:04;11.47;;;4.60;;
19985;SDS011;10154;52.474;10.768;2023-02-28T02:10:45;8.40;;;4.37;;
19985;SDS011;10154;52.474;10.768;2023-02-28T02:13:19;10.90;;;4.20;;
19985;SDS011;10154;52.474;10.768;2023-02-28T02:18:51;9.53;;;3.87;;
19985;SDS011;10154;52.474;10.768;2023-02-28T02:27:01;7.57;;;4.13;;
19985;SDS011;10154;52.474;10.768;2023-02-28T02:35:18;11.93;;;4.60;;
19985;SDS011;10154;52.474;10.768;2023-02-28T02:37:50;8.53;;;4.10;;
19985;SDS011;10154;52.474;10.768;2023-02-28T02:40:20;8.47;;;3.93;;
19985;SDS011;10154;52.474;10.768;2023-02-28T02:45:50;8.00;;;4.07;;
19985;SDS011;10154;52.474;10.768;2023-02-28T02:48:18;13.27;;;4.37;;
19985;SDS011;10154;52.474;10.768;2023-02-28T02:50:46;11.93;;;4.30;;
19985;SDS011;10154;52.474;10.768;2023-02-28T02:53:26;9.03;;;4.13;;
19985;SDS011;10154;52.474;10.768;2023-02-28T02:55:57;8.70;;;3.50;;
19985;SDS011;10154;52.474;10.768;2023-02-28T02:58:26;8.00;;;3.90;;
19985;SDS011;10154;52.474;10.768;2023-02-28T03:00:57;7.97;;;3.93;;
19985;SDS011;10154;52.474;10.768;2023-02-28T03:03:25;9.60;;;3.80;;
19985;SDS011;10154;52.474;10.768;2023-02-28T03:05:54;9.13;;;4.20;;
19985;SDS011;10154;52.474;10.768;2023-02-28T03:08:21;8.53;;;3.80;;
19985;SDS011;10154;52.474;10.768;2023-02-28T03:10:50;9.03;;;3.70;;
19985;SDS011;10154;52.474;10.768;2023-02-28T03:21:25;8.53;;;3.50;;
19985;SDS011;10154;52.474;10.768;2023-02-28T03:23:57;7.80;;;3.93;;
19985;SDS011;10154;52.474;10.768;2023-02-28T03:26:31;8.80;;;3.33;;
19985;SDS011;10154;52.474;10.768;2023-02-28T03:29:16;9.13;;;3.73;;
19985;SDS011;10154;52.474;10.768;2023-02-28T03:32:13;9.23;;;3.97;;
19985;SDS011;10154;52.474;10.768;2023-02-28T03:37:23;7.37;;;3.33;;
19985;SDS011;10154;52.474;10.768;2023-02-28T03:40:00;6.83;;;3.57;;
19985;SDS011;10154;52.474;10.768;2023-02-28T03:42:31;8.97;;;3.90;;
19985;SDS011;10154;52.474;10.768;2023-02-28T03:45:00;8.03;;;3.40;;
19985;SDS011;10154;52.474;10.768;2023-02-28T03:47:35;7.43;;;3.50;;
19985;SDS011;10154;52.474;10.768;2023-02-28T03:52:42;7.07;;;3.40;;
19985;SDS011;10154;52.474;10.768;2023-02-28T03:55:12;7.40;;;3.30;;
19985;SDS011;10154;52.474;10.768;2023-02-28T03:57:41;7.77;;;3.47;;
19985;SDS011;10154;52.474;10.768;2023-02-28T04:00:17;7.10;;;3.10;;
19985;SDS011;10154;52.474;10.768;2023-02-28T04:02:45;7.00;;;3.17;;
19985;SDS011;10154;52.474;10.768;2023-02-28T04:05:10;5.77;;;3.20;;
19985;SDS011;10154;52.474;10.768;2023-02-28T04:07:36;6.30;;;3.10;;
19985;SDS011;10154;52.474;10.768;2023-02-28T04:10:02;6.70;;;3.50;;
19985;SDS011;10154;52.474;10.768;2023-02-28T04:12:28;6.20;;;3.30;;
19985;SDS011;10154;52.474;10.768;2023-02-28T04:14:54;7.07;;;3.23;;
19985;SDS011;10154;52.474;10.768;2023-02-28T04:17:19;7.40;;;3.17;;
19985;SDS011;10154;52.474;10.768;2023-02-28T04:19:44;7.53;;;3.70;;
19985;SDS011;10154;52.474;10.768;2023-02-28T04:22:10;6.73;;;3.50;;
19985;SDS011;10154;52.474;10.768;2023-02-28T04:24:35;9.27;;;3.53;;
19985;SDS011;10154;52.474;10.768;2023-02-28T04:27:01;7.10;;;3.27;;
19985;SDS011;10154;52.474;10.768;2023-02-28T04:29:28;9.37;;;3.50;;
19985;SDS011;10154;52.474;10.768;2023-02-28T04:31:55;7.90;;;3.77;;
19985;SDS011;10154;52.474;10.768;2023-02-28T04:34:23;5.30;;;3.17;;
19985;SDS011;10154;52.474;10.768;2023-02-28T04:36:48;8.97;;;3.53;;
19985;SDS011;10154;52.474;10.768;2023-02-28T04:39:15;6.43;;;3.33;;
19985;SDS011;10154;52.474;10.768;2023-02-28T04:41:43;7.67;;;3.30;;
19985;SDS011;10154;52.474;10.768;2023-02-28T04:44:09;7.87;;;3.23;;
19985;SDS011;10154;52.474;10.768;2023-02-28T04:46:34;7.07;;;4.10;;
19985;SDS011;10154;52.474;10.768;2023-02-28T04:48:59;7.63;;;3.57;;
19985;SDS011;10154;52.474;10.768;2023-02-28T04:51:25;9.40;;;3.87;;
19985;SDS011;10154;52.474;10.768;2023-02-28T04:53:50;8.40;;;4.10;;
19985;SDS011;10154;52.474;10.768;2023-02-28T04:56:16;10.67;;;3.70;;
19985;SDS011;10154;52.474;10.768;2023-02-28T04:58:42;8.93;;;3.57;;
19985;SDS011;10154;52.474;10.768;2023-02-28T05:01:29;7.37;;;3.47;;
19985;SDS011;10154;52.474;10.768;2023-02-28T05:03:56;8.40;;;3.30;;
19985;SDS011;10154;52.474;10.768;2023-02-28T05:06:23;8.80;;;3.80;;
19985;SDS011;10154;52.474;10.768;2023-02-28T05:08:50;6.43;;;3.43;;
19985;SDS011;10154;52.474;10.768;2023-02-28T05:13:49;6.30;;;3.37;;
19985;SDS011;10154;52.474;10.768;2023-02-28T05:16:15;12.10;;;3.90;;
19985;SDS011;10154;52.474;10.768;2023-02-28T05:18:41;8.00;;;3.20;;
19985;SDS011;10154;52.474;10.768;2023-02-28T05:21:14;8.33;;;3.97;;
19985;SDS011;10154;52.474;10.768;2023-02-28T05:29:47;8.40;;;3.93;;
19985;SDS011;10154;52.474;10.768;2023-02-28T05:32:13;8.50;;;3.63;;
19985;SDS011;10154;52.474;10.768;2023-02-28T05:34:38;5.77;;;3.27;;
19985;SDS011;10154;52.474;10.768;2023-02-28T05:37:04;11.20;;;4.03;;
19985;SDS011;10154;52.474;10.768;2023-02-28T05:39:30;8.73;;;3.67;;
19985;SDS011;10154;52.474;10.768;2023-02-28T05:41:56;7.93;;;4.10;;
19985;SDS011;10154;52.474;10.768;2023-02-28T05:44:21;9.87;;;4.10;;
19985;SDS011;10154;52.474;10.768;2023-02-28T05:46:46;8.50;;;3.60;;
19985;SDS011;10154;52.474;10.768;2023-02-28T05:49:12;8.87;;;3.63;;
19985;SDS011;10154;52.474;10.768;2023-02-28T05:51:37;8.37;;;4.13;;
19985;SDS011;10154;52.474;10.768;2023-02-28T05:54:05;9.73;;;4.10;;
19985;SDS011;10154;52.474;10.768;2023-02-28T05:56:31;11.47;;;3.93;;
19985;SDS011;10154;52.474;10.768;2023-02-28T05:58:59;8.13;;;3.97;;
19985;SDS011;10154;52.474;10.768;2023-02-28T06:01:30;8.73;;;3.80;;
19985;SDS011;10154;52.474;10.768;2023-02-28T06:03:57;11.53;;;4.07;;
19985;SDS011;10154;52.474;10.768;2023-02-28T06:06:23;9.00;;;3.63;;
19985;SDS011;10154;52.474;10.768;2023-02-28T06:08:49;8.33;;;4.13;;
19985;SDS011;10154;52.474;10.768;2023-02-28T06:11:14;7.57;;;3.70;;
19985;SDS011;10154;52.474;10.768;2023-02-28T06:13:40;9.17;;;3.80;;
19985;SDS011;10154;52.474;10.768;2023-02-28T06:16:05;7.70;;;3.90;;
19985;SDS011;10154;52.474;10.768;2023-02-28T06:18:32;9.70;;;3.73;;
19985;SDS011;10154;52.474;10.768;2023-02-28T06:20:57;6.43;;;3.23;;
19985;SDS011;10154;52.474;10.768;2023-02-28T06:23:23;8.13;;;3.87;;
19985;SDS011;10154;52.474;10.768;2023-02-28T06:25:48;7.70;;;3.67;;
19985;SDS011;10154;52.474;10.768;2023-02-28T06:28:14;9.80;;;3.83;;
19985;SDS011;10154;52.474;10.768;2023-02-28T06:30:40;6.27;;;3.57;;
19985;SDS011;10154;52.474;10.768;2023-02-28T06:33:05;6.03;;;3.30;;
19985;SDS011;10154;52.474;10.768;2023-02-28T06:35:31;7.97;;;3.20;;
19985;SDS011;10154;52.474;10.768;2023-02-28T06:37:56;9.67;;;3.93;;
19985;SDS011;10154;52.474;10.768;2023-02-28T06:40:22;7.43;;;3.73;;
19985;SDS011;10154;52.474;10.768;2023-02-28T06:42:47;10.37;;;3.60;;
19985;SDS011;10154;52.474;10.768;2023-02-28T06:45:13;6.80;;;3.40;;
19985;SDS011;10154;52.474;10.768;2023-02-28T06:47:39;9.13;;;3.70;;
19985;SDS011;10154;52.474;10.768;2023-02-28T06:50:05;10.27;;;3.77;;
19985;SDS011;10154;52.474;10.768;2023-02-28T06:52:31;8.57;;;3.43;;
19985;SDS011;10154;52.474;10.768;2023-02-28T06:54:57;10.13;;;4.00;;
19985;SDS011;10154;52.474;10.768;2023-02-28T06:57:27;7.70;;;3.90;;
19985;SDS011;10154;52.474;10.768;2023-02-28T06:59:55;8.40;;;3.80;;
19985;SDS011;10154;52.474;10.768;2023-02-28T07:02:21;7.53;;;3.90;;
19985;SDS011;10154;52.474;10.768;2023-02-28T07:04:46;7.13;;;4.13;;
19985;SDS011;10154;52.474;10.768;2023-02-28T07:07:11;7.47;;;3.60;;
19985;SDS011;10154;52.474;10.768;2023-02-28T07:09:37;7.40;;;3.87;;
19985;SDS011;10154;52.474;10.768;2023-02-28T07:12:02;11.97;;;4.40;;
19985;SDS011;10154;52.474;10.768;2023-02-28T07:14:28;8.83;;;3.70;;
19985;SDS011;10154;52.474;10.768;2023-02-28T07:16:53;9.50;;;3.90;;
19985;SDS011;10154;52.474;10.768;2023-02-28T07:19:18;7.67;;;3.90;;
19985;SDS011;10154;52.474;10.768;2023-02-28T07:21:44;8.77;;;4.30;;
19985;SDS011;10154;52.474;10.768;2023-02-28T07:24:10;7.67;;;4.30;;
19985;SDS011;10154;52.474;10.768;2023-02-28T07:26:35;7.93;;;4.33;;
19985;SDS011;10154;52.474;10.768;2023-02-28T07:29:01;8.43;;;4.30;;
19985;SDS011;10154;52.474;10.768;2023-02-28T07:31:27;9.57;;;4.77;;
19985;SDS011;10154;52.474;10.768;2023-02-28T07:33:52;9.87;;;5.27;;
19985;SDS011;10154;52.474;10.768;2023-02-28T07:36:19;12.17;;;5.60;;
19985;SDS011;10154;52.474;10.768;2023-02-28T07:38:45;11.20;;;5.60;;
19985;SDS011;10154;52.474;10.768;2023-02-28T07:41:13;11.80;;;6.17;;
19985;SDS011;10154;52.474;10.768;2023-02-28T07:43:39;11.83;;;6.47;;
19985;SDS011;10154;52.474;10.768;2023-02-28T07:46:05;11.37;;;6.10;;
19985;SDS011;10154;52.474;10.768;2023-02-28T07:48:36;15.07;;;7.07;;
19985;SDS011;10154;52.474;10.768;2023-02-28T07:51:01;12.13;;;6.87;;
19985;SDS011;10154;52.474;10.768;2023-02-28T07:53:27;12.93;;;7.17;;
19985;SDS011;10154;52.474;10.768;2023-02-28T07:55:56;13.07;;;6.23;;
19985;SDS011;10154;52.474;10.768;2023-02-28T07:58:22;11.17;;;5.43;;
19985;SDS011;10154;52.474;10.768;2023-02-28T08:00:48;9.50;;;4.07;;
19985;SDS011;10154;52.474;10.768;2023-02-28T08:03:17;5.70;;;3.73;;
19985;SDS011;10154;52.474;10.768;2023-02-28T08:05:43;7.47;;;3.40;;
19985;SDS011;10154;52.474;10.768;2023-02-28T08:08:09;8.67;;;3.73;;
19985;SDS011;10154;52.474;10.768;2023-02-28T08:10:34;6.13;;;2.80;;
19985;SDS011;10154;52.474;10.768;2023-02-28T08:13:00;5.37;;;2.40;;
19985;SDS011;10154;52.474;10.768;2023-02-28T08:15:25;7.70;;;2.67;;
19985;SDS011;10154;52.474;10.768;2023-02-28T08:17:51;4.80;;;2.60;;
19985;SDS011;10154;52.474;10.768;2023-02-28T08:20:16;5.77;;;2.63;;
19985;SDS011;10154;52.474;10.768;2023-02-28T08:22:41;4.93;;;2.60;;
19985;SDS011;10154;52.474;10.768;2023-02-28T08:25:07;7.17;;;2.70;;
19985;SDS011;10154;52.474;10.768;2023-02-28T08:27:33;5.70;;;2.70;;
19985;SDS011;10154;52.474;10.768;2023-02-28T08:29:59;4.90;;;2.67;;
19985;SDS011;10154;52.474;10.768;2023-02-28T08:32:24;6.03;;;3.00;;
19985;SDS011;10154;52.474;10.768;2023-02-28T08:34:49;5.40;;;2.77;;
19985;SDS011;10154;52.474;10.768;2023-02-28T08:37:15;3.87;;;2.30;;
19985;SDS011;10154;52.474;10.768;2023-02-28T08:39:40;5.43;;;2.30;;
19985;SDS011;10154;52.474;10.768;2023-02-28T08:42:06;6.03;;;2.70;;
19985;SDS011;10154;52.474;10.768;2023-02-28T08:44:31;4.47;;;2.43;;
19985;SDS011;10154;52.474;10.768;2023-02-28T08:46:57;4.40;;;2.30;;
19985;SDS011;10154;52.474;10.768;2023-02-28T08:49:22;4.67;;;2.40;;
19985;SDS011;10154;52.474;10.768;2023-02-28T08:51:47;4.17;;;2.50;;
19985;SDS011;10154;52.474;10.768;2023-02-28T08:54:13;4.50;;;2.53;;
19985;SDS011;10154;52.474;10.768;2023-02-28T08:56:41;4.93;;;2.70;;
19985;SDS011;10154;52.474;10.768;2023-02-28T08:59:08;7.43;;;2.70;;
19985;SDS011;10154;52.474;10.768;2023-02-28T09:01:34;5.03;;;2.70;;
19985;SDS011;10154;52.474;10.768;2023-02-28T09:04:01;4.73;;;2.60;;
19985;SDS011;10154;52.474;10.768;2023-02-28T09:06:27;4.80;;;2.37;;
19985;SDS011;10154;52.474;10.768;2023-02-28T09:08:55;4.00;;;2.73;;
19985;SDS011;10154;52.474;10.768;2023-02-28T09:11:23;4.73;;;2.67;;
19985;SDS011;10154;52.474;10.768;2023-02-28T09:13:49;5.03;;;2.50;;
19985;SDS011;10154;52.474;10.768;2023-02-28T09:16:15;5.87;;;2.60;;
19985;SDS011;10154;52.474;10.768;2023-02-28T09:18:41;5.23;;;3.10;;
19985;SDS011;10154;52.474;10.768;2023-02-28T09:21:08;6.37;;;3.03;;
19985;SDS011;10154;52.474;10.768;2023-02-28T09:23:38;7.23;;;3.47;;
19985;SDS011;10154;52.474;10.768;2023-02-28T09:26:04;7.13;;;3.60;;
19985;SDS011;10154;52.474;10.768;2023-02-28T09:28:30;9.73;;;3.30;;
19985;SDS011;10154;52.474;10.768;2023-02-28T09:30:55;8.60;;;4.00;;
19985;SDS011;10154;52.474;10.768;2023-02-28T09:33:22;5.90;;;3.60;;
19985;SDS011;10154;52.474;10.768;2023-02-28T09:35:50;7.53;;;3.63;;
19985;SDS011;10154;52.474;10.768;2023-02-28T09:38:16;6.57;;;4.00;;
19985;SDS011;10154;52.474;10.768;2023-02-28T09:43:20;8.07;;;4.00;;
19985;SDS011;10154;52.474;10.768;2023-02-28T09:45:57;7.57;;;4.23;;
19985;SDS011;10154;52.474;10.768;2023-02-28T09:48:35;10.37;;;4.63;;
19985;SDS011;10154;52.474;10.768;2023-02-28T09:51:05;8.27;;;4.30;;
19985;SDS011;10154;52.474;10.768;2023-02-28T09:53:37;8.23;;;3.90;;
19985;SDS011;10154;52.474;10.768;2023-02-28T09:56:08;8.97;;;4.60;;
19985;SDS011;10154;52.474;10.768;2023-02-28T09:58:46;7.70;;;4.37;;
19985;SDS011;10154;52.474;10.768;2023-02-28T10:04:36;8.80;;;4.37;;
19985;SDS011;10154;52.474;10.768;2023-02-28T10:10:22;6.77;;;3.80;;
19985;SDS011;10154;52.474;10.768;2023-02-28T10:12:50;7.70;;;4.03;;
19985;SDS011;10154;52.474;10.768;2023-02-28T10:15:18;9.43;;;4.20;;
19985;SDS011;10154;52.474;10.768;2023-02-28T10:17:47;8.10;;;4.00;;
19985;SDS011;10154;52.474;10.768;2023-02-28T10:20:15;7.50;;;3.87;;
19985;SDS011;10154;52.474;10.768;2023-02-28T10:25:33;6.57;;;4.00;;
19985;SDS011;10154;52.474;10.768;2023-02-28T10:28:01;7.10;;;3.67;;
19985;SDS011;10154;52.474;10.768;2023-02-28T10:30:33;6.47;;;3.37;;
19985;SDS011;10154;52.474;10.768;2023-02-28T10:33:00;6.57;;;3.60;;
19985;SDS011;10154;52.474;10.768;2023-02-28T10:35:26;8.17;;;3.90;;
19985;SDS011;10154;52.474;10.768;2023-02-28T10:37:55;5.83;;;3.20;;
19985;SDS011;10154;52.474;10.768;2023-02-28T10:43:00;8.40;;;3.10;;
19985;SDS011;10154;52.474;10.768;2023-02-28T10:45:28;5.40;;;2.90;;
19985;SDS011;10154;52.474;10.768;2023-02-28T10:47:58;6.40;;;2.90;;
19985;SDS011;10154;52.474;10.768;2023-02-28T10:55:56;5.85;;;2.55;;
19985;SDS011;10154;52.474;10.768;2023-02-28T10:58:24;8.90;;;3.23;;
19985;SDS011;10154;52.474;10.768;2023-02-28T11:00:51;7.03;;;2.43;;
19985;SDS011;10154;52.474;10.768;2023-02-28T11:03:24;2.37;;;1.83;;
19985;SDS011;10154;52.474;10.768;2023-02-28T11:05:53;4.97;;;1.93;;
19985;SDS011;10154;52.474;10.768;2023-02-28T11:08:19;6.07;;;2.13;;
19985;SDS011;10154;52.474;10.768;2023-02-28T11:11:27;4.97;;;2.20;;
19985;SDS011;10154;52.474;10.768;2023-02-28T11:13:34;4.57;;;1.80;;
19985;SDS011;10154;52.474;10.768;2023-02-28T11:16:02;3.90;;;1.80;;
19985;SDS011;10154;52.474;10.768;2023-02-28T11:18:30;4.63;;;1.97;;
19985;SDS011;10154;52.474;10.768;2023-02-28T11:21:07;16.67;;;2.97;;
19985;SDS011;10154;52.474;10.768;2023-02-28T11:23:34;4.20;;;2.23;;
19985;SDS011;10154;52.474;10.768;2023-02-28T11:26:02;3.93;;;1.87;;
19985;SDS011;10154;52.474;10.768;2023-02-28T11:28:33;3.80;;;1.90;;
19985;SDS011;10154;52.474;10.768;2023-02-28T11:36:22;6.57;;;2.10;;
19985;SDS011;10154;52.474;10.768;2023-02-28T11:38:59;5.10;;;2.20;;
19985;SDS011;10154;52.474;10.768;2023-02-28T11:42:04;6.33;;;2.13;;
19985;SDS011;10154;52.474;10.768;2023-02-28T11:44:40;3.43;;;2.10;;
19985;SDS011;10154;52.474;10.768;2023-02-28T11:49:53;3.37;;;2.10;;
19985;SDS011;10154;52.474;10.768;2023-02-28T11:52:29;5.03;;;2.50;;
19985;SDS011;10154;52.474;10.768;2023-02-28T11:55:32;7.07;;;2.77;;
19985;SDS011;10154;52.474;10.768;2023-02-28T11:58:11;5.13;;;2.80;;
19985;SDS011;10154;52.474;10.768;2023-02-28T12:01:17;6.40;;;2.83;;
19985;SDS011;10154;52.474;10.768;2023-02-28T12:04:03;4.97;;;2.60;;
19985;SDS011;10154;52.474;10.768;2023-02-28T12:07:09;3.80;;;2.33;;
19985;SDS011;10154;52.474;10.768;2023-02-28T12:20:38;7.47;;;2.90;;
19985;SDS011;10154;52.474;10.768;2023-02-28T12:23:56;6.30;;;2.70;;
19985;SDS011;10154;52.474;10.768;2023-02-28T12:28:38;4.37;;;2.60;;
19985;SDS011;10154;52.474;10.768;2023-02-28T12:31:17;4.40;;;2.57;;
19985;SDS011;10154;52.474;10.768;2023-02-28T12:33:47;7.67;;;2.73;;
19985;SDS011;10154;52.474;10.768;2023-02-28T12:36:17;3.63;;;2.00;;
19985;SDS011;10154;52.474;10.768;2023-02-28T12:41:14;4.03;;;2.07;;
19985;SDS011;10154;52.474;10.768;2023-02-28T12:43:44;3.30;;;2.00;;
19985;SDS011;10154;52.474;10.768;2023-02-28T12:46:22;4.77;;;2.20;;
19985;SDS011;10154;52.474;10.768;2023-02-28T12:49:00;4.93;;;2.10;;
19985;SDS011;10154;52.474;10.768;2023-02-28T12:51:30;3.30;;;2.33;;
19985;SDS011;10154;52.474;10.768;2023-02-28T12:59:27;3.83;;;2.27;;
19985;SDS011;10154;52.474;10.768;2023-02-28T13:05:06;5.37;;;2.33;;
19985;SDS011;10154;52.474;10.768;2023-02-28T13:07:43;4.22;;;2.50;;
19985;SDS011;10154;52.474;10.768;2023-02-28T13:10:17;4.40;;;2.45;;
19985;SDS011;10154;52.474;10.768;2023-02-28T13:12:47;6.03;;;2.70;;
19985;SDS011;10154;52.474;10.768;2023-02-28T13:15:21;3.27;;;2.37;;
19985;SDS011;10154;52.474;10.768;2023-02-28T13:17:53;3.87;;;2.60;;
19985;SDS011;10154;52.474;10.768;2023-02-28T13:20:21;4.47;;;2.40;;
19985;SDS011;10154;52.474;10.768;2023-02-28T13:22:50;3.93;;;2.40;;
19985;SDS011;10154;52.474;10.768;2023-02-28T13:27:58;3.90;;;2.10;;
19985;SDS011;10154;52.474;10.768;2023-02-28T13:33:27;4.20;;;2.40;;
19985;SDS011;10154;52.474;10.768;2023-02-28T13:36:29;6.43;;;2.50;;
19985;SDS011;10154;52.474;10.768;2023-02-28T13:38:57;3.83;;;2.30;;
19985;SDS011;10154;52.474;10.768;2023-02-28T13:46:38;5.73;;;2.60;;
19985;SDS011;10154;52.474;10.768;2023-02-28T13:57:30;5.17;;;2.50;;
19985;SDS011;10154;52.474;10.768;2023-02-28T14:00:14;6.00;;;2.80;;
19985;SDS011;10154;52.474;10.768;2023-02-28T14:06:13;4.50;;;2.63;;
19985;SDS011;10154;52.474;10.768;2023-02-28T14:08:53;5.27;;;2.47;;
19985;SDS011;10154;52.474;10.768;2023-02-28T14:13:58;6.10;;;2.50;;
19985;SDS011;10154;52.474;10.768;2023-02-28T14:16:26;5.23;;;2.53;;
19985;SDS011;10154;52.474;10.768;2023-02-28T14:18:56;5.53;;;2.57;;
19985;SDS011;10154;52.474;10.768;2023-02-28T14:21:24;5.27;;;2.57;;
19985;SDS011;10154;52.474;10.768;2023-02-28T14:32:21;4.07;;;2.30;;
19985;SDS011;10154;52.474;10.768;2023-02-28T14:34:54;6.00;;;2.27;;
19985;SDS011;10154;52.474;10.768;2023-02-28T14:37:28;6.37;;;2.70;;
19985;SDS011;10154;52.474;10.768;2023-02-28T14:39:55;5.63;;;2.53;;
19985;SDS011;10154;52.474;10.768;2023-02-28T14:42:32;4.73;;;2.57;;
19985;SDS011;10154;52.474;10.768;2023-02-28T14:44:59;4.87;;;2.40;;
19985;SDS011;10154;52.474;10.768;2023-02-28T14:47:27;4.03;;;2.40;;
19985;SDS011;10154;52.474;10.768;2023-02-28T14:49:55;7.03;;;2.47;;
19985;SDS011;10154;52.474;10.768;2023-02-28T14:52:32;5.57;;;2.70;;
19985;SDS011;10154;52.474;10.768;2023-02-28T14:55:03;6.30;;;2.57;;
19985;SDS011;10154;52.474;10.768;2023-02-28T14:57:32;4.47;;;2.20;;
19985;SDS011;10154;52.474;10.768;2023-02-28T15:00:46;5.10;;;2.43;;
19985;SDS011;10154;52.474;10.768;2023-02-28T15:02:47;5.57;;;2.30;;
19985;SDS011;10154;52.474;10.768;2023-02-28T15:05:18;5.33;;;2.10;;
19985;SDS011;10154;52.474;10.768;2023-02-28T15:07:48;5.17;;;2.33;;
19985;SDS011;10154;52.474;10.768;2023-02-28T15:12:57;4.90;;;2.30;;
19985;SDS011;10154;52.474;10.768;2023-02-28T15:15:44;5.83;;;2.23;;
19985;SDS011;10154;52.474;10.768;2023-02-28T15:18:30;3.57;;;2.00;;
19985;SDS011;10154;52.474;10.768;2023-02-28T15:21:12;5.73;;;2.00;;
19985;SDS011;10154;52.474;10.768;2023-02-28T15:23:38;4.27;;;2.53;;
19985;SDS011;10154;52.474;10.768;2023-02-28T15:26:06;4.67;;;2.03;;
19985;SDS011;10154;52.474;10.768;2023-02-28T15:28:31;5.60;;;2.20;;
19985;SDS011;10154;52.474;10.768;2023-02-28T15:31:01;2.90;;;1.70;;
19985;SDS011;10154;52.474;10.768;2023-02-28T15:33:32;3.97;;;2.20;;
19985;SDS011;10154;52.474;10.768;2023-02-28T15:38:54;4.27;;;1.87;;
19985;SDS011;10154;52.474;10.768;2023-02-28T15:41:30;4.37;;;2.00;;
19985;SDS011;10154;52.474;10.768;2023-02-28T15:47:02;5.27;;;1.73;;
19985;SDS011;10154;52.474;10.768;2023-02-28T15:49:31;4.80;;;1.90;;
19985;SDS011;10154;52.474;10.768;2023-02-28T15:52:41;4.43;;;1.90;;
19985;SDS011;10154;52.474;10.768;2023-02-28T15:57:38;3.97;;;1.73;;
19985;SDS011;10154;52.474;10.768;2023-02-28T16:00:04;2.87;;;1.73;;
19985;SDS011;10154;52.474;10.768;2023-02-28T16:02:35;3.93;;;2.10;;
19985;SDS011;10154;52.474;10.768;2023-02-28T16:07:37;4.23;;;1.90;;
19985;SDS011;10154;52.474;10.768;2023-02-28T16:10:04;3.60;;;1.73;;
19985;SDS011;10154;52.474;10.768;2023-02-28T16:12:31;3.10;;;1.90;;
19985;SDS011;10154;52.474;10.768;2023-02-28T16:14:59;4.07;;;1.80;;
19985;SDS011;10154;52.474;10.768;2023-02-28T16:17:28;3.63;;;1.70;;
19985;SDS011;10154;52.474;10.768;2023-02-28T16:19:56;4.73;;;2.00;;
19985;SDS011;10154;52.474;10.768;2023-02-28T16:22:22;4.83;;;2.03;;
19985;SDS011;10154;52.474;10.768;2023-02-28T16:24:47;7.07;;;3.00;;
19985;SDS011;10154;52.474;10.768;2023-02-28T16:27:17;6.80;;;2.47;;
19985;SDS011;10154;52.474;10.768;2023-02-28T16:29:47;6.33;;;2.00;;
19985;SDS011;10154;52.474;10.768;2023-02-28T16:32:14;4.77;;;2.20;;
19985;SDS011;10154;52.474;10.768;2023-02-28T16:34:40;5.00;;;2.23;;
19985;SDS011;10154;52.474;10.768;2023-02-28T16:37:13;5.40;;;2.50;;
19985;SDS011;10154;52.474;10.768;2023-02-28T16:39:40;7.17;;;2.50;;
19985;SDS011;10154;52.474;10.768;2023-02-28T16:42:08;6.03;;;3.00;;
19985;SDS011;10154;52.474;10.768;2023-02-28T16:44:50;5.00;;;2.50;;
19985;SDS011;10154;52.474;10.768;2023-02-28T16:47:16;6.87;;;2.77;;
19985;SDS011;10154;52.474;10.768;2023-02-28T16:49:41;5.87;;;2.87;;
19985;SDS011;10154;52.474;10.768;2023-02-28T16:52:08;6.00;;;3.10;;
19985;SDS011;10154;52.474;10.768;2023-02-28T16:54:34;10.00;;;3.00;;
19985;SDS011;10154;52.474;10.768;2023-02-28T16:56:59;6.10;;;2.93;;
19985;SDS011;10154;52.474;10.768;2023-02-28T16:59:25;4.60;;;2.50;;
19985;SDS011;10154;52.474;10.768;2023-02-28T17:01:51;4.57;;;2.50;;
19985;SDS011;10154;52.474;10.768;2023-02-28T17:04:17;5.53;;;2.53;;